CheckWX is a tool to help pilots better visualize weather data.  It is not intended as a substitute for an official pre-flight weather briefing.

01:55:05 UTC

KIAD TAF
Washington Dulles International Airport
Washington, Virginia, USA
KIAD 182324Z 1900/2006 36004KT P6SM FEW070 SCT120 FM190300 29004KT P6SM FEW070 SCT250 FM191400 35005KT P6SM FEW150 FEW250

Mar-19@
00:00 UTC

Mar-19 @ 00:00 UTC

Mar-19@
03:00 UTC

Mar-19 @ 03:00 UTC

KIAD 182324Z 1900/2006 36004KT P6SM FEW070 SCT120
Wind
  • 360° at 4 KTS
Cloud Levels
  • Few at 7,000' AGL
  • Scattered at 12,000' AGL

Mar-19@
03:00 UTC

Mar-19 @ 03:00 UTC

Mar-19@
14:00 UTC

Mar-19 @ 14:00 UTC

FM190300 29004KT P6SM FEW070 SCT250

From

From Standard forecast or significant change

Wind
  • 290° at 4 KTS
Cloud Levels
  • Few at 7,000' AGL
  • Scattered at 25,000' AGL

Mar-19@
14:00 UTC

Mar-19 @ 14:00 UTC

Mar-20@
06:00 UTC

Mar-20 @ 06:00 UTC

FM191400 35005KT P6SM FEW150 FEW250

From

From Standard forecast or significant change

Wind
  • 350° at 5 KTS
Cloud Levels
  • Few at 15,000' AGL
  • Few at 25,000' AGL